sensor_id;sensor_type;location;lat;lon;timestamp;pressure;altitude;pressure_sealevel;temperature;humidity
19797;BME280;10058;57.654;12.044;2023-10-19T00:01:05;100895.19;;;7.59;100.00
19797;BME280;10058;57.654;12.044;2023-10-19T00:03:30;100883.84;;;7.60;100.00
19797;BME280;10058;57.654;12.044;2023-10-19T00:05:56;100886.06;;;7.51;100.00
19797;BME280;10058;57.654;12.044;2023-10-19T00:08:21;100887.16;;;7.56;100.00
19797;BME280;10058;57.654;12.044;2023-10-19T00:10:47;100884.06;;;7.66;100.00
19797;BME280;10058;57.654;12.044;2023-10-19T00:13:15;100881.91;;;7.56;100.00
19797;BME280;10058;57.654;12.044;2023-10-19T00:15:42;100877.69;;;7.60;100.00
19797;BME280;10058;57.654;12.044;2023-10-19T00:18:16;100880.25;;;7.58;100.00
19797;BME280;10058;57.654;12.044;2023-10-19T00:20:42;100881.41;;;7.44;100.00
19797;BME280;10058;57.654;12.044;2023-10-19T00:23:14;100878.94;;;7.49;100.00
19797;BME280;10058;57.654;12.044;2023-10-19T00:25:43;100871.25;;;7.53;100.00
19797;BME280;10058;57.654;12.044;2023-10-19T00:28:09;100868.63;;;7.53;100.00
19797;BME280;10058;57.654;12.044;2023-10-19T00:30:37;100864.06;;;7.49;100.00
19797;BME280;10058;57.654;12.044;2023-10-19T00:33:02;100868.69;;;7.55;100.00
19797;BME280;10058;57.654;12.044;2023-10-19T00:35:41;100874.59;;;7.49;100.00
19797;BME280;10058;57.654;12.044;2023-10-19T00:38:16;100872.66;;;7.45;100.00
19797;BME280;10058;57.654;12.044;2023-10-19T00:41:00;100870.09;;;7.47;100.00
19797;BME280;10058;57.654;12.044;2023-10-19T00:43:35;100872.00;;;7.30;100.00
19797;BME280;10058;57.654;12.044;2023-10-19T00:46:07;100865.09;;;7.32;100.00
19797;BME280;10058;57.654;12.044;2023-10-19T00:48:39;100873.38;;;7.41;100.00
19797;BME280;10058;57.654;12.044;2023-10-19T00:51:05;100874.34;;;7.43;100.00
19797;BME280;10058;57.654;12.044;2023-10-19T00:53:37;100876.91;;;7.21;100.00
19797;BME280;10058;57.654;12.044;2023-10-19T00:56:04;100873.56;;;7.25;100.00
19797;BME280;10058;57.654;12.044;2023-10-19T00:58:34;100871.78;;;7.24;100.00
19797;BME280;10058;57.654;12.044;2023-10-19T01:01:02;100874.75;;;7.12;100.00
19797;BME280;10058;57.654;12.044;2023-10-19T01:03:30;100865.34;;;7.17;100.00
19797;BME280;10058;57.654;12.044;2023-10-19T01:06:00;100876.50;;;7.12;100.00
19797;BME280;10058;57.654;12.044;2023-10-19T01:08:25;100874.66;;;7.09;100.00
19797;BME280;10058;57.654;12.044;2023-10-19T01:10:57;100864.19;;;7.11;100.00
19797;BME280;10058;57.654;12.044;2023-10-19T01:13:24;100863.81;;;7.02;100.00
19797;BME280;10058;57.654;12.044;2023-10-19T01:15:53;100868.03;;;6.98;100.00
19797;BME280;10058;57.654;12.044;2023-10-19T01:18:18;100858.28;;;7.16;100.00
19797;BME280;10058;57.654;12.044;2023-10-19T01:20:44;100863.81;;;7.02;100.00
19797;BME280;10058;57.654;12.044;2023-10-19T01:23:20;100867.41;;;7.04;100.00
19797;BME280;10058;57.654;12.044;2023-10-19T01:25:55;100852.59;;;7.06;100.00
19797;BME280;10058;57.654;12.044;2023-10-19T01:28:21;100859.03;;;6.93;100.00
19797;BME280;10058;57.654;12.044;2023-10-19T01:30:50;100857.28;;;6.73;100.00
19797;BME280;10058;57.654;12.044;2023-10-19T01:33:19;100857.59;;;6.80;100.00
19797;BME280;10058;57.654;12.044;2023-10-19T01:35:44;100860.81;;;6.73;100.00
19797;BME280;10058;57.654;12.044;2023-10-19T01:38:29;100846.72;;;6.71;100.00
19797;BME280;10058;57.654;12.044;2023-10-19T01:41:00;100853.47;;;6.66;100.00
19797;BME280;10058;57.654;12.044;2023-10-19T01:43:26;100855.63;;;6.55;100.00
19797;BME280;10058;57.654;12.044;2023-10-19T01:45:58;100857.28;;;6.53;100.00
19797;BME280;10058;57.654;12.044;2023-10-19T01:48:29;100852.66;;;6.48;100.00
19797;BME280;10058;57.654;12.044;2023-10-19T01:51:02;100855.97;;;6.44;100.00
19797;BME280;10058;57.654;12.044;2023-10-19T01:53:33;100842.28;;;6.32;100.00
19797;BME280;10058;57.654;12.044;2023-10-19T01:56:01;100849.88;;;6.25;100.00
19797;BME280;10058;57.654;12.044;2023-10-19T01:58:30;100839.53;;;6.28;100.00
19797;BME280;10058;57.654;12.044;2023-10-19T02:00:55;100843.50;;;6.01;100.00
19797;BME280;10058;57.654;12.044;2023-10-19T02:03:25;100849.31;;;6.13;100.00
19797;BME280;10058;57.654;12.044;2023-10-19T02:05:59;100840.31;;;6.08;100.00
19797;BME280;10058;57.654;12.044;2023-10-19T02:08:29;100849.44;;;5.97;100.00
19797;BME280;10058;57.654;12.044;2023-10-19T02:10:54;100845.84;;;5.95;100.00
19797;BME280;10058;57.654;12.044;2023-10-19T02:13:20;100845.38;;;5.86;100.00
19797;BME280;10058;57.654;12.044;2023-10-19T02:15:45;100853.41;;;5.89;100.00
19797;BME280;10058;57.654;12.044;2023-10-19T02:18:10;100841.25;;;5.91;100.00
19797;BME280;10058;57.654;12.044;2023-10-19T02:20:36;100833.91;;;5.84;100.00
19797;BME280;10058;57.654;12.044;2023-10-19T02:23:05;100838.63;;;5.91;100.00
19797;BME280;10058;57.654;12.044;2023-10-19T02:25:31;100839.31;;;5.87;100.00
19797;BME280;10058;57.654;12.044;2023-10-19T02:28:01;100833.31;;;5.72;100.00
19797;BME280;10058;57.654;12.044;2023-10-19T02:30:27;100827.13;;;5.70;100.00
19797;BME280;10058;57.654;12.044;2023-10-19T02:32:52;100830.94;;;5.58;100.00
19797;BME280;10058;57.654;12.044;2023-10-19T02:35:18;100833.03;;;5.66;100.00
19797;BME280;10058;57.654;12.044;2023-10-19T02:37:43;100829.88;;;5.73;100.00
19797;BME280;10058;57.654;12.044;2023-10-19T02:40:09;100827.94;;;5.69;100.00
19797;BME280;10058;57.654;12.044;2023-10-19T02:42:44;100840.16;;;5.50;100.00
19797;BME280;10058;57.654;12.044;2023-10-19T02:45:11;100832.56;;;5.56;100.00
19797;BME280;10058;57.654;12.044;2023-10-19T02:47:37;100830.44;;;5.48;100.00
19797;BME280;10058;57.654;12.044;2023-10-19T02:50:02;100831.25;;;5.47;100.00
19797;BME280;10058;57.654;12.044;2023-10-19T02:52:35;100826.25;;;5.51;100.00
19797;BME280;10058;57.654;12.044;2023-10-19T02:55:00;100826.34;;;5.54;100.00
19797;BME280;10058;57.654;12.044;2023-10-19T02:57:29;100821.34;;;5.41;100.00
19797;BME280;10058;57.654;12.044;2023-10-19T02:59:56;100827.97;;;5.33;100.00
19797;BME280;10058;57.654;12.044;2023-10-19T03:02:21;100813.56;;;5.43;100.00
19797;BME280;10058;57.654;12.044;2023-10-19T03:04:47;100814.16;;;5.37;100.00
19797;BME280;10058;57.654;12.044;2023-10-19T03:07:13;100818.06;;;5.45;100.00
19797;BME280;10058;57.654;12.044;2023-10-19T03:09:40;100812.66;;;5.42;100.00
19797;BME280;10058;57.654;12.044;2023-10-19T03:12:13;100821.44;;;5.25;100.00
19797;BME280;10058;57.654;12.044;2023-10-19T03:14:39;100820.38;;;5.39;100.00
19797;BME280;10058;57.654;12.044;2023-10-19T03:17:04;100807.28;;;5.39;100.00
19797;BME280;10058;57.654;12.044;2023-10-19T03:19:30;100812.91;;;5.29;100.00
19797;BME280;10058;57.654;12.044;2023-10-19T03:21:55;100810.44;;;5.32;100.00
19797;BME280;10058;57.654;12.044;2023-10-19T03:24:20;100806.09;;;5.33;100.00
19797;BME280;10058;57.654;12.044;2023-10-19T03:27:00;100804.72;;;5.23;100.00
19797;BME280;10058;57.654;12.044;2023-10-19T03:29:25;100796.88;;;5.23;100.00
19797;BME280;10058;57.654;12.044;2023-10-19T03:31:57;100789.69;;;5.19;100.00
19797;BME280;10058;57.654;12.044;2023-10-19T03:34:23;100797.56;;;5.19;100.00
19797;BME280;10058;57.654;12.044;2023-10-19T03:36:49;100790.53;;;5.18;100.00
19797;BME280;10058;57.654;12.044;2023-10-19T03:39:15;100781.00;;;5.20;100.00
19797;BME280;10058;57.654;12.044;2023-10-19T03:41:42;100784.59;;;5.22;100.00
19797;BME280;10058;57.654;12.044;2023-10-19T03:44:09;100780.03;;;5.18;100.00
19797;BME280;10058;57.654;12.044;2023-10-19T03:46:50;100779.22;;;5.19;100.00
19797;BME280;10058;57.654;12.044;2023-10-19T03:49:21;100776.44;;;5.16;100.00
19797;BME280;10058;57.654;12.044;2023-10-19T03:51:47;100773.75;;;5.14;100.00
19797;BME280;10058;57.654;12.044;2023-10-19T03:54:24;100762.66;;;5.20;100.00
19797;BME280;10058;57.654;12.044;2023-10-19T03:56:50;100760.09;;;5.21;100.00
19797;BME280;10058;57.654;12.044;2023-10-19T03:59:16;100761.63;;;5.34;100.00
19797;BME280;10058;57.654;12.044;2023-10-19T04:01:42;100756.59;;;5.21;100.00
19797;BME280;10058;57.654;12.044;2023-10-19T04:04:08;100769.69;;;5.21;100.00
19797;BME280;10058;57.654;12.044;2023-10-19T04:06:34;100767.22;;;5.24;100.00
19797;BME280;10058;57.654;12.044;2023-10-19T04:08:59;100767.53;;;5.30;100.00
19797;BME280;10058;57.654;12.044;2023-10-19T04:11:24;100771.72;;;5.27;100.00
19797;BME280;10058;57.654;12.044;2023-10-19T04:13:57;100765.25;;;5.38;100.00
19797;BME280;10058;57.654;12.044;2023-10-19T04:16:24;100757.56;;;5.23;100.00
19797;BME280;10058;57.654;12.044;2023-10-19T04:18:49;100745.91;;;5.34;100.00
19797;BME280;10058;57.654;12.044;2023-10-19T04:21:14;100758.53;;;5.43;100.00
19797;BME280;10058;57.654;12.044;2023-10-19T04:23:40;100747.69;;;5.35;100.00
19797;BME280;10058;57.654;12.044;2023-10-19T04:26:05;100748.63;;;5.37;100.00
19797;BME280;10058;57.654;12.044;2023-10-19T04:28:36;100749.34;;;5.33;100.00
19797;BME280;10058;57.654;12.044;2023-10-19T04:31:12;100742.56;;;5.38;100.00
19797;BME280;10058;57.654;12.044;2023-10-19T04:33:41;100741.56;;;5.35;100.00
19797;BME280;10058;57.654;12.044;2023-10-19T04:36:11;100734.44;;;5.32;100.00
19797;BME280;10058;57.654;12.044;2023-10-19T04:38:36;100739.31;;;5.24;100.00
19797;BME280;10058;57.654;12.044;2023-10-19T04:41:05;100732.88;;;5.36;100.00
19797;BME280;10058;57.654;12.044;2023-10-19T04:43:34;100743.91;;;5.48;100.00
19797;BME280;10058;57.654;12.044;2023-10-19T04:46:00;100742.94;;;5.46;100.00
19797;BME280;10058;57.654;12.044;2023-10-19T04:48:26;100738.09;;;5.53;100.00
19797;BME280;10058;57.654;12.044;2023-10-19T04:50:51;100730.91;;;5.49;100.00
19797;BME280;10058;57.654;12.044;2023-10-19T04:53:16;100740.31;;;5.46;100.00
19797;BME280;10058;57.654;12.044;2023-10-19T04:55:41;100742.28;;;5.50;100.00
19797;BME280;10058;57.654;12.044;2023-10-19T04:58:07;100744.97;;;5.51;100.00
19797;BME280;10058;57.654;12.044;2023-10-19T05:00:32;100746.31;;;5.43;100.00
19797;BME280;10058;57.654;12.044;2023-10-19T05:02:58;100744.97;;;5.51;100.00
19797;BME280;10058;57.654;12.044;2023-10-19T05:05:23;100750.22;;;5.51;100.00
19797;BME280;10058;57.654;12.044;2023-10-19T05:07:48;100736.13;;;5.49;100.00
19797;BME280;10058;57.654;12.044;2023-10-19T05:10:13;100740.16;;;5.60;100.00
19797;BME280;10058;57.654;12.044;2023-10-19T05:12:39;100745.34;;;5.41;100.00
19797;BME280;10058;57.654;12.044;2023-10-19T05:15:04;100739.00;;;5.36;100.00
19797;BME280;10058;57.654;12.044;2023-10-19T05:17:30;100748.28;;;5.30;100.00
19797;BME280;10058;57.654;12.044;2023-10-19T05:19:56;100747.69;;;5.35;100.00
19797;BME280;10058;57.654;12.044;2023-10-19T05:22:21;100737.94;;;5.50;100.00
19797;BME280;10058;57.654;12.044;2023-10-19T05:24:49;100749.63;;;5.39;100.00
19797;BME280;10058;57.654;12.044;2023-10-19T05:27:15;100749.00;;;5.45;100.00
19797;BME280;10058;57.654;12.044;2023-10-19T05:29:40;100748.63;;;5.37;100.00
19797;BME280;10058;57.654;12.044;2023-10-19T05:32:05;100748.63;;;5.37;100.00
19797;BME280;10058;57.654;12.044;2023-10-19T05:34:30;100743.03;;;5.30;100.00
19797;BME280;10058;57.654;12.044;2023-10-19T05:36:57;100741.16;;;5.27;100.00
19797;BME280;10058;57.654;12.044;2023-10-19T05:39:27;100745.91;;;5.34;100.00
19797;BME280;10058;57.654;12.044;2023-10-19T05:41:53;100737.88;;;5.31;100.00
19797;BME280;10058;57.654;12.044;2023-10-19T05:44:18;100744.69;;;5.28;100.00
19797;BME280;10058;57.654;12.044;2023-10-19T05:46:44;100740.34;;;5.28;100.00
19797;BME280;10058;57.654;12.044;2023-10-19T05:49:09;100742.16;;;5.29;100.00
19797;BME280;10058;57.654;12.044;2023-10-19T05:51:34;100738.72;;;5.30;100.00
19797;BME280;10058;57.654;12.044;2023-10-19T05:54:00;100744.53;;;5.24;100.00
19797;BME280;10058;57.654;12.044;2023-10-19T05:56:28;100740.03;;;5.22;100.00
19797;BME280;10058;57.654;12.044;2023-10-19T05:58:55;100743.88;;;5.29;100.00
19797;BME280;10058;57.654;12.044;2023-10-19T06:01:21;100742.31;;;5.32;100.00
19797;BME280;10058;57.654;12.044;2023-10-19T06:03:47;100751.41;;;5.22;100.00
19797;BME280;10058;57.654;12.044;2023-10-19T06:06:12;100752.13;;;5.18;100.00
19797;BME280;10058;57.654;12.044;2023-10-19T06:08:37;100751.16;;;5.16;100.00
19797;BME280;10058;57.654;12.044;2023-10-19T06:11:02;100754.59;;;5.33;100.00
19797;BME280;10058;57.654;12.044;2023-10-19T06:13:28;100753.06;;;5.20;100.00
19797;BME280;10058;57.654;12.044;2023-10-19T06:15:54;100747.69;;;5.17;100.00
19797;BME280;10058;57.654;12.044;2023-10-19T06:18:19;100750.69;;;5.25;100.00
19797;BME280;10058;57.654;12.044;2023-10-19T06:20:44;100757.13;;;5.32;100.00
19797;BME280;10058;57.654;12.044;2023-10-19T06:23:10;100753.75;;;5.34;100.00
19797;BME280;10058;57.654;12.044;2023-10-19T06:25:36;100755.16;;;5.45;100.00
19797;BME280;10058;57.654;12.044;2023-10-19T06:28:02;100764.31;;;5.36;100.00
19797;BME280;10058;57.654;12.044;2023-10-19T06:30:27;100761.75;;;5.37;100.00
19797;BME280;10058;57.654;12.044;2023-10-19T06:32:56;100758.91;;;5.50;100.00
19797;BME280;10058;57.654;12.044;2023-10-19T06:35:24;100761.25;;;5.27;100.00
19797;BME280;10058;57.654;12.044;2023-10-19T06:37:50;100753.53;;;5.30;100.00
19797;BME280;10058;57.654;12.044;2023-10-19T06:40:16;100750.69;;;5.25;100.00
19797;BME280;10058;57.654;12.044;2023-10-19T06:42:45;100756.47;;;5.18;100.00
19797;BME280;10058;57.654;12.044;2023-10-19T06:45:10;100762.38;;;5.14;100.00
19797;BME280;10058;57.654;12.044;2023-10-19T06:47:38;100763.44;;;5.17;100.00
19797;BME280;10058;57.654;12.044;2023-10-19T06:50:05;100770.91;;;5.10;100.00
19797;BME280;10058;57.654;12.044;2023-10-19T06:52:32;100776.72;;;5.22;100.00
19797;BME280;10058;57.654;12.044;2023-10-19T06:54:57;100771.38;;;5.19;100.00
19797;BME280;10058;57.654;12.044;2023-10-19T06:57:22;100769.09;;;5.09;100.00
19797;BME280;10058;57.654;12.044;2023-10-19T06:59:48;100772.84;;;5.14;100.00
19797;BME280;10058;57.654;12.044;2023-10-19T07:02:13;100783.59;;;5.20;100.00
19797;BME280;10058;57.654;12.044;2023-10-19T07:04:38;100771.19;;;5.34;100.00
19797;BME280;10058;57.654;12.044;2023-10-19T07:07:03;100775.25;;;5.27;100.00
19797;BME280;10058;57.654;12.044;2023-10-19T07:09:29;100787.09;;;5.19;100.00
19797;BME280;10058;57.654;12.044;2023-10-19T07:11:54;100781.88;;;5.38;100.00
19797;BME280;10058;57.654;12.044;2023-10-19T07:14:20;100783.56;;;5.18;100.00
19797;BME280;10058;57.654;12.044;2023-10-19T07:16:47;100739.03;;;5.18;100.00
19797;BME280;10058;57.654;12.044;2023-10-19T07:19:12;100768.03;;;5.41;100.00
19797;BME280;10058;57.654;12.044;2023-10-19T07:21:39;100767.75;;;5.35;100.00
19797;BME280;10058;57.654;12.044;2023-10-19T07:24:07;100783.47;;;5.52;100.00
19797;BME280;10058;57.654;12.044;2023-10-19T07:26:36;100779.41;;;5.59;100.00
19797;BME280;10058;57.654;12.044;2023-10-19T07:29:08;100774.50;;;5.30;100.00
19797;BME280;10058;57.654;12.044;2023-10-19T07:31:35;100769.84;;;5.24;100.00
19797;BME280;10058;57.654;12.044;2023-10-19T07:34:00;100774.19;;;5.41;100.00
19797;BME280;10058;57.654;12.044;2023-10-19T07:36:26;100778.50;;;5.41;100.00
19797;BME280;10058;57.654;12.044;2023-10-19T07:38:51;100779.25;;;5.38;100.00
19797;BME280;10058;57.654;12.044;2023-10-19T07:41:16;100786.63;;;5.28;100.00
19797;BME280;10058;57.654;12.044;2023-10-19T07:43:41;100782.28;;;5.28;100.00
19797;BME280;10058;57.654;12.044;2023-10-19T07:46:08;100779.00;;;5.32;100.00
19797;BME280;10058;57.654;12.044;2023-10-19T07:48:33;100777.34;;;5.34;100.00
19797;BME280;10058;57.654;12.044;2023-10-19T07:50:58;100792.44;;;5.22;100.00
19797;BME280;10058;57.654;12.044;2023-10-19T07:53:24;100795.88;;;5.21;100.00
19797;BME280;10058;57.654;12.044;2023-10-19T07:55:49;100785.41;;;5.21;100.00
19797;BME280;10058;57.654;12.044;2023-10-19T07:58:15;100779.88;;;5.33;100.00
19797;BME280;10058;57.654;12.044;2023-10-19T08:00:40;100775.63;;;5.35;100.00
19797;BME280;10058;57.654;12.044;2023-10-19T08:03:07;100790.56;;;5.37;100.00
19797;BME280;10058;57.654;12.044;2023-10-19T08:05:33;100781.38;;;5.45;100.00
19797;BME280;10058;57.654;12.044;2023-10-19T08:07:58;100787.50;;;5.64;100.00
19797;BME280;10058;57.654;12.044;2023-10-19T08:10:25;100782.34;;;5.84;100.00
19797;BME280;10058;57.654;12.044;2023-10-19T08:12:51;100778.47;;;5.94;100.00
19797;BME280;10058;57.654;12.044;2023-10-19T08:15:17;100782.81;;;5.76;100.00
19797;BME280;10058;57.654;12.044;2023-10-19T08:17:44;100779.56;;;5.99;100.00
19797;BME280;10058;57.654;12.044;2023-10-19T08:20:10;100783.84;;;5.97;100.00
19797;BME280;10058;57.654;12.044;2023-10-19T08:22:41;100780.81;;;6.07;100.00
19797;BME280;10058;57.654;12.044;2023-10-19T08:25:06;100776.88;;;6.17;100.00
19797;BME280;10058;57.654;12.044;2023-10-19T08:27:39;100773.66;;;6.03;100.00
19797;BME280;10058;57.654;12.044;2023-10-19T08:30:05;100778.31;;;6.10;100.00
19797;BME280;10058;57.654;12.044;2023-10-19T08:32:31;100765.34;;;6.13;100.00
19797;BME280;10058;57.654;12.044;2023-10-19T08:34:58;100769.91;;;5.98;100.00
19797;BME280;10058;57.654;12.044;2023-10-19T08:37:23;100770.31;;;6.07;100.00
19797;BME280;10058;57.654;12.044;2023-10-19T08:39:48;100776.53;;;6.09;100.00
19797;BME280;10058;57.654;12.044;2023-10-19T08:42:14;100777.75;;;5.61;100.00
19797;BME280;10058;57.654;12.044;2023-10-19T08:44:39;100778.84;;;5.84;100.00
19797;BME280;10058;57.654;12.044;2023-10-19T08:47:06;100774.84;;;5.92;100.00
19797;BME280;10058;57.654;12.044;2023-10-19T08:49:31;100780.19;;;5.76;100.00
19797;BME280;10058;57.654;12.044;2023-10-19T08:51:57;100776.41;;;5.69;100.00
19797;BME280;10058;57.654;12.044;2023-10-19T08:54:23;100771.34;;;5.74;100.00
19797;BME280;10058;57.654;12.044;2023-10-19T08:56:51;100782.53;;;5.70;100.00
19797;BME280;10058;57.654;12.044;2023-10-19T08:59:16;100774.31;;;5.99;100.00
19797;BME280;10058;57.654;12.044;2023-10-19T09:01:42;100781.38;;;6.00;100.00
19797;BME280;10058;57.654;12.044;2023-10-19T09:04:09;100771.88;;;5.84;100.00
19797;BME280;10058;57.654;12.044;2023-10-19T09:06:35;100782.81;;;6.13;100.00
19797;BME280;10058;57.654;12.044;2023-10-19T09:09:09;100771.25;;;5.90;100.00
19797;BME280;10058;57.654;12.044;2023-10-19T09:11:41;100774.53;;;5.67;100.00
19797;BME280;10058;57.654;12.044;2023-10-19T09:14:07;100773.84;;;5.88;100.00
19797;BME280;10058;57.654;12.044;2023-10-19T09:16:32;100776.34;;;6.05;100.00
19797;BME280;10058;57.654;12.044;2023-10-19T09:18:57;100768.81;;;6.12;100.00
19797;BME280;10058;57.654;12.044;2023-10-19T09:21:22;100757.91;;;6.03;100.00
19797;BME280;10058;57.654;12.044;2023-10-19T09:23:51;100765.50;;;6.16;100.00
19797;BME280;10058;57.654;12.044;2023-10-19T09:26:16;100746.69;;;6.26;100.00
19797;BME280;10058;57.654;12.044;2023-10-19T09:28:43;100745.72;;;6.24;100.00
19797;BME280;10058;57.654;12.044;2023-10-19T09:31:12;100740.06;;;6.35;100.00
19797;BME280;10058;57.654;12.044;2023-10-19T09:33:39;100737.84;;;6.24;100.00
19797;BME280;10058;57.654;12.044;2023-10-19T09:36:05;100745.16;;;6.32;100.00
19797;BME280;10058;57.654;12.044;2023-10-19T09:38:37;100750.94;;;6.44;100.00
19797;BME280;10058;57.654;12.044;2023-10-19T09:41:03;100743.78;;;6.40;100.00
19797;BME280;10058;57.654;12.044;2023-10-19T09:45:54;100732.53;;;6.63;100.00
19797;BME280;10058;57.654;12.044;2023-10-19T09:48:23;100733.75;;;6.50;100.00
19797;BME280;10058;57.654;12.044;2023-10-19T09:50:53;100757.59;;;6.36;100.00
19797;BME280;10058;57.654;12.044;2023-10-19T09:53:26;100742.38;;;6.48;100.00
19797;BME280;10058;57.654;12.044;2023-10-19T09:55:53;100741.09;;;6.59;100.00
19797;BME280;10058;57.654;12.044;2023-10-19T09:58:19;100742.84;;;6.58;100.00
19797;BME280;10058;57.654;12.044;2023-10-19T10:00:47;100738.16;;;6.51;100.00
19797;BME280;10058;57.654;12.044;2023-10-19T10:05:58;100721.66;;;6.54;100.00
19797;BME280;10058;57.654;12.044;2023-10-19T10:10:49;100718.44;;;6.61;100.00
19797;BME280;10058;57.654;12.044;2023-10-19T10:15:49;100718.97;;;6.73;100.00
19797;BME280;10058;57.654;12.044;2023-10-19T10:18:16;100713.81;;;6.76;100.00
19797;BME280;10058;57.654;12.044;2023-10-19T10:20:42;100714.75;;;6.56;100.00
19797;BME280;10058;57.654;12.044;2023-10-19T10:23:17;100718.72;;;6.67;100.00
19797;BME280;10058;57.654;12.044;2023-10-19T10:25:47;100699.84;;;6.77;100.00
19797;BME280;10058;57.654;12.044;2023-10-19T10:28:19;100699.94;;;6.58;100.00
19797;BME280;10058;57.654;12.044;2023-10-19T10:33:37;100717.41;;;6.78;100.00
19797;BME280;10058;57.654;12.044;2023-10-19T10:36:04;100698.59;;;6.68;100.00
19797;BME280;10058;57.654;12.044;2023-10-19T10:38:32;100699.09;;;6.59;100.00
19797;BME280;10058;57.654;12.044;2023-10-19T10:40:58;100701.69;;;6.57;100.00
19797;BME280;10058;57.654;12.044;2023-10-19T10:43:23;100699.09;;;6.59;100.00
19797;BME280;10058;57.654;12.044;2023-10-19T10:45:48;100693.34;;;6.88;100.00
19797;BME280;10058;57.654;12.044;2023-10-19T10:48:14;100695.34;;;6.95;100.00
19797;BME280;10058;57.654;12.044;2023-10-19T10:50:39;100683.19;;;6.77;100.00
19797;BME280;10058;57.654;12.044;2023-10-19T10:53:06;100695.63;;;6.81;100.00
19797;BME280;10058;57.654;12.044;2023-10-19T10:55:31;100686.84;;;6.80;100.00
19797;BME280;10058;57.654;12.044;2023-10-19T10:57:57;100690.88;;;6.93;100.00
19797;BME280;10058;57.654;12.044;2023-10-19T11:00:23;100691.91;;;6.96;100.00
19797;BME280;10058;57.654;12.044;2023-10-19T11:03:01;100692.06;;;7.22;100.00
19797;BME280;10058;57.654;12.044;2023-10-19T11:05:26;100694.25;;;6.68;100.00
19797;BME280;10058;57.654;12.044;2023-10-19T11:08:02;100694.88;;;6.83;100.00
19797;BME280;10058;57.654;12.044;2023-10-19T11:10:28;100706.41;;;6.87;100.00
19797;BME280;10058;57.654;12.044;2023-10-19T11:12:59;100689.69;;;6.64;100.00
19797;BME280;10058;57.654;12.044;2023-10-19T11:15:25;100684.94;;;6.76;100.00
19797;BME280;10058;57.654;12.044;2023-10-19T11:17:50;100681.94;;;6.88;100.00
19797;BME280;10058;57.654;12.044;2023-10-19T11:20:23;100675.72;;;6.86;100.00
19797;BME280;10058;57.654;12.044;2023-10-19T11:22:50;100663.09;;;6.77;100.00
19797;BME280;10058;57.654;12.044;2023-10-19T11:25:20;100657.22;;;7.05;100.00
19797;BME280;10058;57.654;12.044;2023-10-19T11:27:45;100666.22;;;6.89;100.00
19797;BME280;10058;57.654;12.044;2023-10-19T11:30:12;100657.81;;;6.98;100.00
19797;BME280;10058;57.654;12.044;2023-10-19T11:32:37;100656.63;;;7.12;100.00
19797;BME280;10058;57.654;12.044;2023-10-19T11:35:06;100653.22;;;7.15;100.00
19797;BME280;10058;57.654;12.044;2023-10-19T11:37:47;100655.00;;;7.38;100.00
19797;BME280;10058;57.654;12.044;2023-10-19T11:40:13;100651.34;;;7.12;100.00
19797;BME280;10058;57.654;12.044;2023-10-19T11:42:38;100646.53;;;7.01;100.00
19797;BME280;10058;57.654;12.044;2023-10-19T11:45:03;100647.09;;;6.93;100.00
19797;BME280;10058;57.654;12.044;2023-10-19T11:47:31;100649.72;;;6.93;100.00
19797;BME280;10058;57.654;12.044;2023-10-19T11:49:56;100643.34;;;6.87;100.00
19797;BME280;10058;57.654;12.044;2023-10-19T11:52:21;100648.97;;;6.96;100.00
19797;BME280;10058;57.654;12.044;2023-10-19T11:54:47;100644.59;;;6.96;100.00
19797;BME280;10058;57.654;12.044;2023-10-19T11:57:13;100651.53;;;7.17;100.00
19797;BME280;10058;57.654;12.044;2023-10-19T11:59:38;100647.00;;;7.13;100.00
19797;BME280;10058;57.654;12.044;2023-10-19T12:02:03;100650.13;;;7.03;100.00
19797;BME280;10058;57.654;12.044;2023-10-19T12:04:31;100643.53;;;7.14;100.00
19797;BME280;10058;57.654;12.044;2023-10-19T12:06:57;100653.81;;;7.08;100.00
19797;BME280;10058;57.654;12.044;2023-10-19T12:09:22;100657.13;;;6.81;100.00
19797;BME280;10058;57.654;12.044;2023-10-19T12:11:50;100668.88;;;6.48;100.00
19797;BME280;10058;57.654;12.044;2023-10-19T12:14:18;100652.56;;;6.55;100.00
19797;BME280;10058;57.654;12.044;2023-10-19T12:16:43;100658.63;;;6.54;100.00
19797;BME280;10058;57.654;12.044;2023-10-19T12:19:10;100640.88;;;6.69;100.00
19797;BME280;10058;57.654;12.044;2023-10-19T12:21:35;100649.38;;;6.84;100.00
19797;BME280;10058;57.654;12.044;2023-10-19T12:24:02;100650.34;;;6.86;100.00
19797;BME280;10058;57.654;12.044;2023-10-19T12:26:29;100648.81;;;6.71;100.00
19797;BME280;10058;57.654;12.044;2023-10-19T12:28:55;100654.91;;;6.70;100.00
19797;BME280;10058;57.654;12.044;2023-10-19T12:31:20;100661.97;;;6.50;100.00
19797;BME280;10058;57.654;12.044;2023-10-19T12:33:47;100659.00;;;6.21;100.00
19797;BME280;10058;57.654;12.044;2023-10-19T12:36:12;100652.19;;;6.26;100.00
19797;BME280;10058;57.654;12.044;2023-10-19T12:38:56;100650.06;;;6.58;100.00
19797;BME280;10058;57.654;12.044;2023-10-19T12:41:22;100641.09;;;6.53;100.00
19797;BME280;10058;57.654;12.044;2023-10-19T12:43:47;100641.44;;;6.62;100.00
19797;BME280;10058;57.654;12.044;2023-10-19T12:46:13;100644.66;;;6.55;100.00
19797;BME280;10058;57.654;12.044;2023-10-19T12:48:39;100640.06;;;6.49;100.00
19797;BME280;10058;57.654;12.044;2023-10-19T12:51:04;100630.59;;;6.53;100.00
19797;BME280;10058;57.654;12.044;2023-10-19T12:53:32;100632.50;;;6.57;100.00